Time;durP1;ratioP1;P1;durP2;ratioP2;P2;SDS_P1;SDS_P2;PMS_P1;PMS_P2;Temp;Humidity;BMP_temperature;BMP_pressure;BME280_temperature;BME280_humidity;BME280_pressure;Samples;Min_cycle;Max_cycle;Signal;HPM_P1;HPM_P2
2022/12/29 02:00:18;;;;;;;1999.90;999.90;;;;;;;;;;5695694;23;20248;-69
2022/12/29 02:03:04;;;;;;;1999.90;999.90;;;;;;;;;;4950256;29;20217;-68
2022/12/29 02:05:52;;;;;;;1999.90;999.90;;;;;;;;;;4954522;29;20336;-69
2022/12/29 02:08:38;;;;;;;1999.90;999.90;;;;;;;;;;4954849;29;20601;-69
2022/12/29 02:11:24;;;;;;;1999.90;999.90;;;;;;;;;;4954752;28;20224;-69
2022/12/29 02:14:11;;;;;;;1999.90;999.90;;;;;;;;;;4954575;29;20584;-69
2022/12/29 02:17:06;;;;;;;1999.90;999.90;;;;;;;;;;4954641;29;20208;-69
2022/12/29 02:20:12;;;;;;;1999.90;999.90;;;;;;;;;;4954471;28;20228;-70
2022/12/29 02:23:06;;;;;;;1999.90;999.90;;;;;;;;;;4954649;29;20702;-68
2022/12/29 02:26:06;;;;;;;1999.90;999.90;;;;;;;;;;4941878;29;20289;-69
2022/12/29 02:29:06;;;;;;;1999.90;999.90;;;;;;;;;;4929446;29;20222;-68
2022/12/29 02:31:57;;;;;;;1999.90;999.90;;;;;;;;;;4937630;29;20217;-67
2022/12/29 02:34:48;;;;;;;1999.90;999.90;;;;;;;;;;4934305;29;20209;-69
2022/12/29 02:37:40;;;;;;;1999.90;999.90;;;;;;;;;;4933808;29;20254;-68
2022/12/29 02:40:28;;;;;;;1999.90;999.90;;;;;;;;;;4933594;29;20725;-68
2022/12/29 02:43:17;;;;;;;1999.90;999.90;;;;;;;;;;4934754;29;20209;-68
2022/12/29 02:46:05;;;;;;;1999.90;999.90;;;;;;;;;;4935794;29;20283;-66
2022/12/29 02:48:55;;;;;;;1999.90;999.90;;;;;;;;;;4933641;29;20289;-66
2022/12/29 02:51:44;;;;;;;1999.90;999.90;;;;;;;;;;4933651;29;20581;-66
2022/12/29 02:54:42;;;;;;;1999.90;999.90;;;;;;;;;;4934343;29;20210;-68
2022/12/29 02:57:31;;;;;;;1999.90;999.90;;;;;;;;;;4933014;29;20209;-65
2022/12/29 03:00:18;;;;;;;1999.90;999.90;;;;;;;;;;4933122;29;20795;-64
2022/12/29 03:03:20;;;;;;;1999.90;999.90;;;;;;;;;;4933681;29;20349;-67
2022/12/29 03:06:24;;;;;;;1999.90;999.90;;;;;;;;;;4932059;29;20704;-70
2022/12/29 03:09:17;;;;;;;1999.90;999.90;;;;;;;;;;4933351;29;20567;-70
2022/12/29 03:12:11;;;;;;;1999.90;999.90;;;;;;;;;;4933691;29;20209;-68
2022/12/29 03:18:05;;;;;;;1999.90;999.90;;;;;;;;;;4934775;29;20207;-69
2022/12/29 03:20:53;;;;;;;1999.90;999.90;;;;;;;;;;4934365;29;20237;-69
2022/12/29 03:23:39;;;;;;;1999.90;999.90;;;;;;;;;;4934711;29;20206;-69
2022/12/29 03:26:25;;;;;;;1999.90;999.90;;;;;;;;;;4934428;29;20210;-69
2022/12/29 03:29:10;;;;;;;1999.90;999.90;;;;;;;;;;4934551;29;20204;-69
2022/12/29 03:31:56;;;;;;;1999.90;999.90;;;;;;;;;;4934582;29;20221;-69
2022/12/29 03:34:41;;;;;;;1999.90;999.90;;;;;;;;;;4934310;29;20261;-68
2022/12/29 03:37:27;;;;;;;1999.90;999.90;;;;;;;;;;4934525;29;20330;-69
2022/12/29 03:40:12;;;;;;;1999.90;999.90;;;;;;;;;;4934312;29;20237;-69
2022/12/29 03:42:59;;;;;;;1999.90;999.90;;;;;;;;;;4934499;28;20346;-68
2022/12/29 03:45:44;;;;;;;1999.90;999.90;;;;;;;;;;4937744;29;20285;-69
2022/12/29 03:48:28;;;;;;;1999.90;999.90;;;;;;;;;;4940673;29;20268;-69
2022/12/29 03:51:13;;;;;;;1999.90;999.90;;;;;;;;;;4938120;29;20233;-69
2022/12/29 03:53:58;;;;;;;1999.90;999.90;;;;;;;;;;4946590;29;20212;-69
2022/12/29 03:56:43;;;;;;;1999.90;999.90;;;;;;;;;;4937905;29;20763;-68
2022/12/29 03:59:29;;;;;;;1999.90;999.90;;;;;;;;;;4950336;28;20291;-68
2022/12/29 04:02:14;;;;;;;1999.90;999.90;;;;;;;;;;4935463;29;20832;-69
2022/12/29 04:04:59;;;;;;;1999.90;999.90;;;;;;;;;;4954835;29;20212;-69
2022/12/29 04:07:44;;;;;;;1999.90;999.90;;;;;;;;;;4956958;29;20582;-68
2022/12/29 04:10:29;;;;;;;1999.90;999.90;;;;;;;;;;4952761;28;20341;-69
2022/12/29 04:13:14;;;;;;;1999.90;999.90;;;;;;;;;;4953631;29;20201;-69
2022/12/29 04:16:00;;;;;;;1999.90;999.90;;;;;;;;;;4941879;29;20430;-69
2022/12/29 04:18:45;;;;;;;1999.90;999.90;;;;;;;;;;4952015;29;20329;-65
2022/12/29 04:21:30;;;;;;;1999.90;999.90;;;;;;;;;;4937622;29;20328;-68
2022/12/29 04:24:15;;;;;;;1999.90;999.90;;;;;;;;;;4937360;29;20213;-69
2022/12/29 04:26:59;;;;;;;1999.90;999.90;;;;;;;;;;4937492;29;20209;-68
2022/12/29 04:29:44;;;;;;;1999.90;999.90;;;;;;;;;;4937404;29;20321;-69
2022/12/29 04:32:30;;;;;;;1999.90;999.90;;;;;;;;;;4937477;29;20228;-69
2022/12/29 04:35:15;;;;;;;1999.90;999.90;;;;;;;;;;4937072;29;20214;-69
2022/12/29 04:38:00;;;;;;;1999.90;999.90;;;;;;;;;;4937322;29;20200;-69
2022/12/29 04:40:45;;;;;;;1999.90;999.90;;;;;;;;;;4936875;29;20237;-69
2022/12/29 04:43:30;;;;;;;1999.90;999.90;;;;;;;;;;4937194;29;20338;-69
2022/12/29 04:46:15;;;;;;;1999.90;999.90;;;;;;;;;;4936872;29;20289;-69
2022/12/29 04:49:07;;;;;;;1999.90;999.90;;;;;;;;;;4937137;29;20285;-69
2022/12/29 04:51:52;;;;;;;1999.90;999.90;;;;;;;;;;4937135;29;20689;-68
2022/12/29 04:54:37;;;;;;;1999.90;999.90;;;;;;;;;;4936331;29;20205;-69
2022/12/29 04:57:22;;;;;;;1999.90;999.90;;;;;;;;;;4936765;29;20205;-68
2022/12/29 05:00:08;;;;;;;1999.90;999.90;;;;;;;;;;4936490;29;20253;-69
2022/12/29 05:02:53;;;;;;;1999.90;999.90;;;;;;;;;;4922137;29;20289;-69
2022/12/29 05:05:40;;;;;;;1999.90;999.90;;;;;;;;;;4955441;29;20574;-69
2022/12/29 05:08:25;;;;;;;1999.90;999.90;;;;;;;;;;4948675;29;20580;-69
2022/12/29 05:11:10;;;;;;;1999.90;999.90;;;;;;;;;;4936568;29;20249;-69
2022/12/29 05:13:55;;;;;;;1999.90;999.90;;;;;;;;;;4936737;29;20690;-69
2022/12/29 05:16:40;;;;;;;1999.90;999.90;;;;;;;;;;4936547;29;20741;-69
2022/12/29 05:19:25;;;;;;;1999.90;999.90;;;;;;;;;;4952979;28;20205;-69
2022/12/29 05:22:11;;;;;;;1999.90;999.90;;;;;;;;;;4955376;29;20706;-69
2022/12/29 05:24:56;;;;;;;1999.90;999.90;;;;;;;;;;4917067;29;20637;-69
2022/12/29 05:27:41;;;;;;;1999.90;999.90;;;;;;;;;;4937175;29;20209;-70
2022/12/29 05:30:26;;;;;;;1999.90;999.90;;;;;;;;;;4942278;28;20240;-69
2022/12/29 05:33:11;;;;;;;1999.90;999.90;;;;;;;;;;4936348;29;20210;-69
2022/12/29 05:35:56;;;;;;;1999.90;999.90;;;;;;;;;;4935699;29;20213;-70
2022/12/29 05:38:43;;;;;;;1999.90;999.90;;;;;;;;;;4935955;29;20217;-69
2022/12/29 05:41:27;;;;;;;1999.90;999.90;;;;;;;;;;4935899;29;20233;-67
2022/12/29 05:44:13;;;;;;;1999.90;999.90;;;;;;;;;;4936172;29;20225;-71
2022/12/29 05:46:57;;;;;;;1999.90;999.90;;;;;;;;;;4940186;29;20203;-70
2022/12/29 05:49:43;;;;;;;1999.90;999.90;;;;;;;;;;4955129;28;20737;-67
2022/12/29 05:52:27;;;;;;;1999.90;999.90;;;;;;;;;;4955069;29;20341;-70
2022/12/29 05:55:13;;;;;;;1999.90;999.90;;;;;;;;;;4936193;29;20301;-68
2022/12/29 05:57:59;;;;;;;1999.90;999.90;;;;;;;;;;4935655;29;20638;-70
2022/12/29 06:00:44;;;;;;;1999.90;999.90;;;;;;;;;;4935592;29;20240;-70
2022/12/29 06:03:29;;;;;;;1999.90;999.90;;;;;;;;;;4935753;29;20200;-70
2022/12/29 06:06:14;;;;;;;1999.90;999.90;;;;;;;;;;4935063;29;20210;-70
2022/12/29 06:08:59;;;;;;;1999.90;999.90;;;;;;;;;;4935387;29;20209;-70
2022/12/29 06:11:45;;;;;;;1999.90;999.90;;;;;;;;;;4935420;29;20205;-70
2022/12/29 06:14:30;;;;;;;1999.90;999.90;;;;;;;;;;4935361;29;20706;-67
2022/12/29 06:17:15;;;;;;;1999.90;999.90;;;;;;;;;;4935339;29;20341;-65
2022/12/29 06:20:00;;;;;;;1999.90;999.90;;;;;;;;;;4935398;29;20273;-67
2022/12/29 06:22:46;;;;;;;1999.90;999.90;;;;;;;;;;4935547;29;20680;-69
2022/12/29 06:25:33;;;;;;;1999.90;999.90;;;;;;;;;;4935109;29;20208;-70
2022/12/29 06:28:19;;;;;;;1999.90;999.90;;;;;;;;;;4934610;29;20341;-70
2022/12/29 06:31:04;;;;;;;1999.90;999.90;;;;;;;;;;4934660;29;20229;-70
2022/12/29 06:33:49;;;;;;;1999.90;999.90;;;;;;;;;;4935019;29;20239;-71
2022/12/29 06:36:35;;;;;;;1999.90;999.90;;;;;;;;;;4935005;29;20703;-70
2022/12/29 06:39:19;;;;;;;1999.90;999.90;;;;;;;;;;4916153;29;20298;-70
2022/12/29 06:42:05;;;;;;;1999.90;999.90;;;;;;;;;;4919267;29;20235;-70
2022/12/29 06:44:52;;;;;;;1999.90;999.90;;;;;;;;;;4934860;29;20588;-70
2022/12/29 06:47:37;;;;;;;1999.90;999.90;;;;;;;;;;4934828;29;20704;-70
2022/12/29 06:50:22;;;;;;;1999.90;999.90;;;;;;;;;;4935011;29;20585;-70
2022/12/29 06:53:07;;;;;;;1999.90;999.90;;;;;;;;;;4934391;29;20221;-70
2022/12/29 06:55:52;;;;;;;1999.90;999.90;;;;;;;;;;4934537;29;20220;-70
2022/12/29 06:58:37;;;;;;;1999.90;999.90;;;;;;;;;;4934723;29;20220;-68
2022/12/29 07:01:23;;;;;;;1999.90;999.90;;;;;;;;;;4934253;29;20604;-70
2022/12/29 07:04:08;;;;;;;1999.90;999.90;;;;;;;;;;4933968;29;20703;-68
2022/12/29 07:06:53;;;;;;;1999.90;999.90;;;;;;;;;;4934241;29;20749;-70
2022/12/29 07:09:38;;;;;;;1999.90;999.90;;;;;;;;;;4934643;29;20256;-68
2022/12/29 07:12:23;;;;;;;1999.90;999.90;;;;;;;;;;4934766;29;20589;-71
2022/12/29 07:15:08;;;;;;;1999.90;999.90;;;;;;;;;;4934213;29;20208;-71
2022/12/29 07:17:55;;;;;;;1999.90;999.90;;;;;;;;;;4934580;29;20673;-71
2022/12/29 07:20:40;;;;;;;1999.90;999.90;;;;;;;;;;4938177;29;20232;-68
2022/12/29 07:23:25;;;;;;;1999.90;999.90;;;;;;;;;;4938769;29;20241;-68
2022/12/29 07:26:12;;;;;;;1999.90;999.90;;;;;;;;;;4938311;29;20217;-68
2022/12/29 07:28:57;;;;;;;1999.90;999.90;;;;;;;;;;4938563;29;20201;-70
2022/12/29 07:31:42;;;;;;;1999.90;999.90;;;;;;;;;;4938532;29;20202;-71
2022/12/29 07:34:28;;;;;;;1999.90;999.90;;;;;;;;;;4938268;29;20213;-68
2022/12/29 07:37:13;;;;;;;1999.90;999.90;;;;;;;;;;4938239;29;20209;-71
2022/12/29 07:39:58;;;;;;;1999.90;999.90;;;;;;;;;;4938311;29;20723;-69
2022/12/29 07:42:43;;;;;;;1999.90;999.90;;;;;;;;;;4937337;29;20236;-69
2022/12/29 07:45:28;;;;;;;1999.90;999.90;;;;;;;;;;4937807;29;20213;-70
2022/12/29 07:48:13;;;;;;;1999.90;999.90;;;;;;;;;;4938340;29;20805;-70
2022/12/29 07:50:59;;;;;;;1999.90;999.90;;;;;;;;;;4919191;29;20314;-70
2022/12/29 07:53:44;;;;;;;1999.90;999.90;;;;;;;;;;4919086;29;20213;-70
2022/12/29 07:56:29;;;;;;;1999.90;999.90;;;;;;;;;;4929111;29;20573;-70
2022/12/29 07:59:14;;;;;;;1999.90;999.90;;;;;;;;;;4937851;29;20208;-70
2022/12/29 08:01:59;;;;;;;1999.90;999.90;;;;;;;;;;4937608;29;20240;-71
2022/12/29 08:04:43;;;;;;;1999.90;999.90;;;;;;;;;;4937647;29;20201;-70
2022/12/29 08:07:30;;;;;;;1999.90;999.90;;;;;;;;;;4937010;29;20759;-71
2022/12/29 08:10:15;;;;;;;1999.90;999.90;;;;;;;;;;4937629;29;20369;-70
2022/12/29 08:13:00;;;;;;;1999.90;999.90;;;;;;;;;;4937867;29;20700;-70
2022/12/29 08:15:45;;;;;;;1999.90;999.90;;;;;;;;;;4937248;29;20225;-70
2022/12/29 08:18:30;;;;;;;1999.90;999.90;;;;;;;;;;4936908;29;20209;-69
2022/12/29 08:21:15;;;;;;;1999.90;999.90;;;;;;;;;;4937092;29;20232;-70
2022/12/29 08:24:02;;;;;;;1999.90;999.90;;;;;;;;;;4924888;29;20213;-70
2022/12/29 08:26:47;;;;;;;1999.90;999.90;;;;;;;;;;4936597;29;20256;-71
2022/12/29 08:29:31;;;;;;;1999.90;999.90;;;;;;;;;;4936931;29;20266;-70
2022/12/29 08:32:16;;;;;;;1999.90;999.90;;;;;;;;;;4937447;29;20340;-70
2022/12/29 08:35:02;;;;;;;1999.90;999.90;;;;;;;;;;4936223;29;20210;-70
2022/12/29 08:37:46;;;;;;;1999.90;999.90;;;;;;;;;;4936792;29;20217;-70
2022/12/29 08:40:33;;;;;;;1999.90;999.90;;;;;;;;;;4936797;29;20228;-68
2022/12/29 08:43:18;;;;;;;1999.90;999.90;;;;;;;;;;4936158;29;20201;-71
2022/12/29 08:46:03;;;;;;;1999.90;999.90;;;;;;;;;;4935613;29;20216;-70
2022/12/29 08:48:48;;;;;;;1999.90;999.90;;;;;;;;;;4935938;29;20306;-71
2022/12/29 08:51:33;;;;;;;1999.90;999.90;;;;;;;;;;4935583;29;20228;-70
2022/12/29 08:54:19;;;;;;;1999.90;999.90;;;;;;;;;;4935403;29;20668;-70
2022/12/29 08:57:05;;;;;;;1999.90;999.90;;;;;;;;;;4935953;29;20580;-71
2022/12/29 08:59:50;;;;;;;1999.90;999.90;;;;;;;;;;4932314;29;20252;-71
2022/12/29 09:02:35;;;;;;;1999.90;999.90;;;;;;;;;;4934593;29;20225;-71
2022/12/29 09:05:20;;;;;;;1999.90;999.90;;;;;;;;;;4943985;29;20201;-70
2022/12/29 09:08:05;;;;;;;1999.90;999.90;;;;;;;;;;4942091;29;20574;-71
2022/12/29 09:10:50;;;;;;;1999.90;999.90;;;;;;;;;;4945139;29;20252;-71
2022/12/29 09:13:37;;;;;;;1999.90;999.90;;;;;;;;;;4949967;29;20212;-71
2022/12/29 09:16:24;;;;;;;1999.90;999.90;;;;;;;;;;4947410;29;20301;-71
2022/12/29 09:19:09;;;;;;;1999.90;999.90;;;;;;;;;;4952133;29;20216;-72
2022/12/29 09:21:54;;;;;;;1999.90;999.90;;;;;;;;;;4945629;29;21085;-71
2022/12/29 09:24:39;;;;;;;1999.90;999.90;;;;;;;;;;4939686;29;20309;-71
2022/12/29 09:27:24;;;;;;;1999.90;999.90;;;;;;;;;;4949546;29;20200;-72
2022/12/29 09:30:12;;;;;;;1999.90;999.90;;;;;;;;;;4943250;29;20303;-72
2022/12/29 09:32:57;;;;;;;1999.90;999.90;;;;;;;;;;4935641;29;20209;-71
2022/12/29 09:35:42;;;;;;;1999.90;999.90;;;;;;;;;;4934141;29;20212;-70
2022/12/29 09:38:28;;;;;;;1999.90;999.90;;;;;;;;;;4940330;29;20213;-70
2022/12/29 09:41:15;;;;;;;1999.90;999.90;;;;;;;;;;4934756;29;20232;-70
2022/12/29 09:44:05;;;;;;;1999.90;999.90;;;;;;;;;;4950815;29;20208;-69
2022/12/29 09:46:53;;;;;;;1999.90;999.90;;;;;;;;;;4939416;29;20334;-71
2022/12/29 09:49:42;;;;;;;1999.90;999.90;;;;;;;;;;4933372;29;20313;-71
2022/12/29 09:52:30;;;;;;;1999.90;999.90;;;;;;;;;;4938819;29;20216;-70
2022/12/29 09:55:16;;;;;;;1999.90;999.90;;;;;;;;;;4933701;29;20214;-71
2022/12/29 09:58:05;;;;;;;1999.90;999.90;;;;;;;;;;4934417;29;20218;-71
2022/12/29 10:00:52;;;;;;;1999.90;999.90;;;;;;;;;;4934932;29;20238;-70
2022/12/29 10:03:44;;;;;;;1999.90;999.90;;;;;;;;;;4934592;29;20287;-71
2022/12/29 10:06:33;;;;;;;1999.90;999.90;;;;;;;;;;4936155;29;20269;-70
2022/12/29 10:09:20;;;;;;;1999.90;999.90;;;;;;;;;;4933886;29;20293;-70
2022/12/29 10:12:10;;;;;;;1999.90;999.90;;;;;;;;;;4936358;29;20220;-70
2022/12/29 10:15:01;;;;;;;1999.90;999.90;;;;;;;;;;4934211;29;20220;-70
2022/12/29 10:17:48;;;;;;;1999.90;999.90;;;;;;;;;;4933841;29;20253;-69
2022/12/29 10:20:39;;;;;;;1999.90;999.90;;;;;;;;;;4940300;29;20224;-70
2022/12/29 10:23:27;;;;;;;1999.90;999.90;;;;;;;;;;4937800;29;20242;-70
2022/12/29 10:26:14;;;;;;;1999.90;999.90;;;;;;;;;;4937944;29;20436;-70
2022/12/29 10:29:03;;;;;;;1999.90;999.90;;;;;;;;;;4948267;29;20259;-70
2022/12/29 10:31:51;;;;;;;1999.90;999.90;;;;;;;;;;4937310;29;20225;-71
2022/12/29 10:34:38;;;;;;;1999.90;999.90;;;;;;;;;;4936932;29;20208;-71
2022/12/29 10:37:30;;;;;;;1999.90;999.90;;;;;;;;;;4938478;29;20256;-71
2022/12/29 10:40:19;;;;;;;1999.90;999.90;;;;;;;;;;4932611;29;20225;-71
2022/12/29 10:43:07;;;;;;;1999.90;999.90;;;;;;;;;;4943282;29;20235;-70
2022/12/29 10:45:52;;;;;;;1999.90;999.90;;;;;;;;;;4949978;29;20208;-70
2022/12/29 10:48:37;;;;;;;1999.90;999.90;;;;;;;;;;4937697;29;20579;-70
2022/12/29 10:51:25;;;;;;;1999.90;999.90;;;;;;;;;;4933401;29;20235;-70
2022/12/29 10:54:15;;;;;;;1999.90;999.90;;;;;;;;;;4948101;29;20239;-70
2022/12/29 10:57:02;;;;;;;1999.90;999.90;;;;;;;;;;4952936;29;20322;-70
2022/12/29 10:59:47;;;;;;;1999.90;999.90;;;;;;;;;;4953439;28;20624;-70
2022/12/29 11:02:50;;;;;;;1999.90;999.90;;;;;;;;;;4952337;29;20860;-70
2022/12/29 11:05:38;;;;;;;1999.90;999.90;;;;;;;;;;4938162;29;20205;-70
2022/12/29 11:08:25;;;;;;;1999.90;999.90;;;;;;;;;;4926561;29;20204;-70
2022/12/29 11:11:11;;;;;;;1999.90;999.90;;;;;;;;;;4936258;28;20316;-70
2022/12/29 11:13:57;;;;;;;1999.90;999.90;;;;;;;;;;4934275;29;20693;-70
2022/12/29 11:16:44;;;;;;;1999.90;999.90;;;;;;;;;;4934506;29;20221;-70
2022/12/29 11:19:31;;;;;;;1999.90;999.90;;;;;;;;;;4934122;29;20220;-70
2022/12/29 11:22:22;;;;;;;1999.90;999.90;;;;;;;;;;4934461;29;20592;-70
2022/12/29 11:25:11;;;;;;;1999.90;999.90;;;;;;;;;;4934187;29;20260;-70
2022/12/29 11:27:58;;;;;;;1999.90;999.90;;;;;;;;;;4934747;29;20219;-70
2022/12/29 11:30:43;;;;;;;1999.90;999.90;;;;;;;;;;4915395;29;20234;-70
2022/12/29 11:33:29;;;;;;;1999.90;999.90;;;;;;;;;;4920186;29;20663;-70
2022/12/29 11:36:15;;;;;;;1999.90;999.90;;;;;;;;;;4934403;29;20213;-70
2022/12/29 11:39:01;;;;;;;1999.90;999.90;;;;;;;;;;4934333;29;20577;-70
2022/12/29 11:41:52;;;;;;;1999.90;999.90;;;;;;;;;;4934518;29;20209;-70
2022/12/29 11:44:43;;;;;;;1999.90;999.90;;;;;;;;;;4933295;29;20210;-70
2022/12/29 11:47:29;;;;;;;1999.90;999.90;;;;;;;;;;4932944;29;20266;-70
2022/12/29 11:50:18;;;;;;;1999.90;999.90;;;;;;;;;;4934117;29;20245;-70
2022/12/29 11:53:05;;;;;;;1999.90;999.90;;;;;;;;;;4934096;29;20806;-70
2022/12/29 11:55:54;;;;;;;1999.90;999.90;;;;;;;;;;4933475;29;20337;-70
2022/12/29 11:58:39;;;;;;;1999.90;999.90;;;;;;;;;;4930788;29;20567;-70
2022/12/29 12:01:31;;;;;;;1999.90;999.90;;;;;;;;;;4932957;29;20289;-70
2022/12/29 12:04:18;;;;;;;1999.90;999.90;;;;;;;;;;4932823;29;20217;-70
2022/12/29 12:07:06;;;;;;;1999.90;999.90;;;;;;;;;;4937807;29;20241;-71
2022/12/29 12:09:54;;;;;;;1999.90;999.90;;;;;;;;;;4936561;29;20308;-70
2022/12/29 12:12:42;;;;;;;1999.90;999.90;;;;;;;;;;4936768;29;20209;-70
2022/12/29 12:15:31;;;;;;;1999.90;999.90;;;;;;;;;;4936185;29;20220;-70
2022/12/29 12:18:20;;;;;;;1999.90;999.90;;;;;;;;;;4938241;29;20235;-70
2022/12/29 12:21:09;;;;;;;1999.90;999.90;;;;;;;;;;4936778;29;20630;-71
2022/12/29 12:24:13;;;;;;;1999.90;999.90;;;;;;;;;;4937607;29;20238;-71
2022/12/29 12:27:00;;;;;;;1999.90;999.90;;;;;;;;;;4947803;29;20224;-71
2022/12/29 12:29:49;;;;;;;1999.90;999.90;;;;;;;;;;4956458;28;20232;-72
2022/12/29 12:32:42;;;;;;;1999.90;999.90;;;;;;;;;;4942121;29;20222;-70
2022/12/29 12:35:42;;;;;;;1999.90;999.90;;;;;;;;;;4951698;29;20201;-69
2022/12/29 12:38:31;;;;;;;1999.90;999.90;;;;;;;;;;4951946;29;20336;-71
2022/12/29 12:41:19;;;;;;;1999.90;999.90;;;;;;;;;;4956074;28;20603;-69
2022/12/29 12:44:07;;;;;;;1999.90;999.90;;;;;;;;;;4935386;29;20228;-71
2022/12/29 12:47:06;;;;;;;1999.90;999.90;;;;;;;;;;4938460;29;20224;-70
2022/12/29 12:50:11;;;;;;;1999.90;999.90;;;;;;;;;;4939993;29;20222;-71
2022/12/29 12:53:08;;;;;;;1999.90;999.90;;;;;;;;;;4921999;29;20202;-71
2022/12/29 12:56:04;;;;;;;1999.90;999.90;;;;;;;;;;4936477;29;20209;-70
2022/12/29 12:58:52;;;;;;;1999.90;999.90;;;;;;;;;;4946094;29;20227;-71
2022/12/29 13:01:41;;;;;;;1999.90;999.90;;;;;;;;;;4949092;28;20434;-70
2022/12/29 13:04:34;;;;;;;1999.90;999.90;;;;;;;;;;4928384;29;20728;-70
2022/12/29 13:07:23;;;;;;;1999.90;999.90;;;;;;;;;;4937509;29;20201;-70
2022/12/29 13:10:23;;;;;;;1999.90;999.90;;;;;;;;;;4937195;29;20237;-71
2022/12/29 13:13:16;;;;;;;1999.90;999.90;;;;;;;;;;4941536;29;20340;-70
2022/12/29 13:16:04;;;;;;;1999.90;999.90;;;;;;;;;;4944888;29;20209;-71
2022/12/29 13:18:51;;;;;;;1999.90;999.90;;;;;;;;;;4938624;29;20208;-70
2022/12/29 13:21:45;;;;;;;1999.90;999.90;;;;;;;;;;4950721;28;20241;-71
2022/12/29 13:24:34;;;;;;;1999.90;999.90;;;;;;;;;;4934490;29;20343;-71
2022/12/29 13:27:24;;;;;;;1999.90;999.90;;;;;;;;;;4935801;29;20221;-71
2022/12/29 13:30:11;;;;;;;1999.90;999.90;;;;;;;;;;4936427;29;20248;-71
2022/12/29 13:32:59;;;;;;;1999.90;999.90;;;;;;;;;;4934724;29;20506;-71
2022/12/29 13:35:50;;;;;;;1999.90;999.90;;;;;;;;;;4935909;29;20294;-70
2022/12/29 13:38:37;;;;;;;1999.90;999.90;;;;;;;;;;4936288;29;20213;-70
2022/12/29 13:41:26;;;;;;;1999.90;999.90;;;;;;;;;;4935956;29;20246;-71
2022/12/29 13:44:16;;;;;;;1999.90;999.90;;;;;;;;;;4935910;29;20759;-71
2022/12/29 13:47:05;;;;;;;1999.90;999.90;;;;;;;;;;4935841;29;20225;-71
2022/12/29 13:49:50;;;;;;;1999.90;999.90;;;;;;;;;;4936010;29;20249;-71
2022/12/29 13:52:38;;;;;;;1999.90;999.90;;;;;;;;;;4936002;29;20209;-72
2022/12/29 13:55:27;;;;;;;1999.90;999.90;;;;;;;;;;4940601;29;20299;-70
2022/12/29 13:58:15;;;;;;;1999.90;999.90;;;;;;;;;;4943120;29;20209;-71
2022/12/29 14:01:09;;;;;;;1999.90;999.90;;;;;;;;;;4932700;29;20293;-71
2022/12/29 14:03:55;;;;;;;1999.90;999.90;;;;;;;;;;4935321;29;20720;-71
2022/12/29 14:06:42;;;;;;;1999.90;999.90;;;;;;;;;;4935336;29;20769;-71
2022/12/29 14:09:34;;;;;;;1999.90;999.90;;;;;;;;;;4935134;29;20284;-69
2022/12/29 14:12:28;;;;;;;1999.90;999.90;;;;;;;;;;4935449;29;20338;-70
2022/12/29 14:15:21;;;;;;;1999.90;999.90;;;;;;;;;;4943000;29;20208;-71
2022/12/29 14:18:14;;;;;;;1999.90;999.90;;;;;;;;;;4939270;29;20216;-71
2022/12/29 14:21:00;;;;;;;1999.90;999.90;;;;;;;;;;4954309;28;20291;-71
2022/12/29 14:23:45;;;;;;;1999.90;999.90;;;;;;;;;;4954339;29;20330;-71
2022/12/29 14:26:35;;;;;;;1999.90;999.90;;;;;;;;;;4923132;29;20213;-71
2022/12/29 14:29:50;;;;;;;1999.90;999.90;;;;;;;;;;4952792;28;20216;-70
2022/12/29 14:32:37;;;;;;;1999.90;999.90;;;;;;;;;;4879260;29;20231;-71
2022/12/29 14:35:40;;;;;;;1999.90;999.90;;;;;;;;;;4934825;29;20232;-71
2022/12/29 14:38:27;;;;;;;1999.90;999.90;;;;;;;;;;4953428;29;20286;-70
2022/12/29 14:41:33;;;;;;;1999.90;999.90;;;;;;;;;;4935002;29;20285;-70
2022/12/29 14:44:20;;;;;;;1999.90;999.90;;;;;;;;;;4934534;29;20301;-69
2022/12/29 14:47:06;;;;;;;1999.90;999.90;;;;;;;;;;4935030;29;20743;-70
2022/12/29 14:49:52;;;;;;;1999.90;999.90;;;;;;;;;;4952492;28;20236;-70
2022/12/29 14:52:46;;;;;;;1999.90;999.90;;;;;;;;;;4953942;29;20197;-70
2022/12/29 14:55:37;;;;;;;1999.90;999.90;;;;;;;;;;4953821;29;20208;-70
2022/12/29 14:58:26;;;;;;;1999.90;999.90;;;;;;;;;;4953931;29;20703;-70
2022/12/29 15:01:17;;;;;;;1999.90;999.90;;;;;;;;;;4953849;28;20288;-70
2022/12/29 15:04:06;;;;;;;1999.90;999.90;;;;;;;;;;4953672;29;20220;-70
2022/12/29 15:06:51;;;;;;;1999.90;999.90;;;;;;;;;;4936770;29;20306;-70
2022/12/29 15:09:42;;;;;;;1999.90;999.90;;;;;;;;;;4933328;29;20437;-70
2022/12/29 15:12:31;;;;;;;1999.90;999.90;;;;;;;;;;4934406;29;20268;-70
2022/12/29 15:15:21;;;;;;;1999.90;999.90;;;;;;;;;;4934208;29;20213;-70
2022/12/29 15:18:14;;;;;;;1999.90;999.90;;;;;;;;;;4934417;29;20279;-70
2022/12/29 15:21:00;;;;;;;1999.90;999.90;;;;;;;;;;4915649;29;20313;-70
2022/12/29 15:23:46;;;;;;;1999.90;999.90;;;;;;;;;;4915329;29;20258;-70
2022/12/29 15:26:39;;;;;;;1999.90;999.90;;;;;;;;;;4915456;29;20238;-71
2022/12/29 15:29:31;;;;;;;1999.90;999.90;;;;;;;;;;4936583;29;20213;-70
2022/12/29 15:32:18;;;;;;;1999.90;999.90;;;;;;;;;;4934288;29;20211;-70
2022/12/29 15:35:22;;;;;;;1999.90;999.90;;;;;;;;;;4932922;29;20248;-69
2022/12/29 15:38:15;;;;;;;1999.90;999.90;;;;;;;;;;4936660;29;20272;-69
2022/12/29 15:41:03;;;;;;;1999.90;999.90;;;;;;;;;;4934814;29;20233;-69
2022/12/29 15:43:54;;;;;;;1999.90;999.90;;;;;;;;;;4936756;29;20233;-70
2022/12/29 15:46:39;;;;;;;1999.90;999.90;;;;;;;;;;4934382;29;20215;-69
2022/12/29 15:49:24;;;;;;;1999.90;999.90;;;;;;;;;;4936715;29;20213;-69
2022/12/29 15:52:09;;;;;;;1999.90;999.90;;;;;;;;;;4936846;29;20216;-69
2022/12/29 15:54:55;;;;;;;1999.90;999.90;;;;;;;;;;4937382;29;20213;-69
2022/12/29 15:57:43;;;;;;;1999.90;999.90;;;;;;;;;;4938114;29;20201;-69
2022/12/29 16:00:30;;;;;;;1999.90;999.90;;;;;;;;;;4937832;29;20316;-70
2022/12/29 16:03:16;;;;;;;1999.90;999.90;;;;;;;;;;4930982;29;20300;-70
2022/12/29 16:06:08;;;;;;;1999.90;999.90;;;;;;;;;;4938580;29;20213;-70
2022/12/29 16:08:56;;;;;;;1999.90;999.90;;;;;;;;;;4937987;29;20699;-70
2022/12/29 16:11:43;;;;;;;1999.90;999.90;;;;;;;;;;4938172;29;20232;-70
2022/12/29 16:14:30;;;;;;;1999.90;999.90;;;;;;;;;;4955600;29;20334;-70
2022/12/29 16:17:19;;;;;;;1999.90;999.90;;;;;;;;;;4939633;29;20796;-70
2022/12/29 16:20:06;;;;;;;1999.90;999.90;;;;;;;;;;4943463;28;20516;-70
2022/12/29 16:22:52;;;;;;;1999.90;999.90;;;;;;;;;;4955549;29;20705;-69
2022/12/29 16:25:38;;;;;;;1999.90;999.90;;;;;;;;;;4956162;29;20201;-70
2022/12/29 16:28:23;;;;;;;1999.90;999.90;;;;;;;;;;4939182;29;20213;-70
2022/12/29 16:31:18;;;;;;;1999.90;999.90;;;;;;;;;;4937477;29;20229;-70
2022/12/29 16:34:21;;;;;;;1999.90;999.90;;;;;;;;;;4937171;29;20283;-70
2022/12/29 16:37:24;;;;;;;1999.90;999.90;;;;;;;;;;4937165;29;20229;-70
2022/12/29 16:40:25;;;;;;;1999.90;999.90;;;;;;;;;;4938837;29;20231;-70
2022/12/29 16:43:20;;;;;;;1999.90;999.90;;;;;;;;;;4938016;29;20579;-70
2022/12/29 16:46:21;;;;;;;1999.90;999.90;;;;;;;;;;4936854;29;20209;-70
2022/12/29 16:49:14;;;;;;;1999.90;999.90;;;;;;;;;;4920756;29;20896;-69
2022/12/29 16:52:01;;;;;;;1999.90;999.90;;;;;;;;;;4939867;29;20213;-70
2022/12/29 16:54:49;;;;;;;1999.90;999.90;;;;;;;;;;4946242;29;20209;-69
2022/12/29 16:57:36;;;;;;;1999.90;999.90;;;;;;;;;;4955062;29;20256;-70
2022/12/29 17:00:22;;;;;;;1999.90;999.90;;;;;;;;;;4955864;28;20360;-69
2022/12/29 17:03:07;;;;;;;1999.90;999.90;;;;;;;;;;4955346;29;20217;-69
2022/12/29 17:05:51;;;;;;;1999.90;999.90;;;;;;;;;;4954494;29;20804;-69
2022/12/29 17:08:42;;;;;;;1999.90;999.90;;;;;;;;;;4955961;29;20219;-70
2022/12/29 17:14:37;;;;;;;1999.90;999.90;;;;;;;;;;4955490;29;20200;-70
2022/12/29 17:17:30;;;;;;;1999.90;999.90;;;;;;;;;;4940398;29;20579;-69
2022/12/29 17:20:17;;;;;;;1999.90;999.90;;;;;;;;;;4936563;29;20281;-70
2022/12/29 17:23:02;;;;;;;1999.90;999.90;;;;;;;;;;4917355;29;20300;-69
2022/12/29 17:25:48;;;;;;;1999.90;999.90;;;;;;;;;;4935264;29;20213;-69
2022/12/29 17:28:33;;;;;;;1999.90;999.90;;;;;;;;;;4937272;29;20234;-70
2022/12/29 17:31:18;;;;;;;1999.90;999.90;;;;;;;;;;4936195;29;20596;-70
2022/12/29 17:34:03;;;;;;;1999.90;999.90;;;;;;;;;;4936035;29;20309;-70
2022/12/29 17:36:48;;;;;;;1999.90;999.90;;;;;;;;;;4936227;29;20210;-69
2022/12/29 17:39:33;;;;;;;1999.90;999.90;;;;;;;;;;4936082;29;20209;-69
2022/12/29 17:42:19;;;;;;;1999.90;999.90;;;;;;;;;;4943635;29;20232;-69